الصفحة الرئيسية
METAR-TAF:

METAR-TAF

مطار :

تيجوسيجالبا, هندوراس

دائرة عرض: 14-03N, خط طول: 087-13W, ارتفاع: 994 متر

مراقبة الطقس الحالي

تاريخ ووقت الإصدار 54 دقيقة قبل الساعة 07:00UTC
رياح هادئة
درجة الحرارة 19°درجة مئوية
الرطوبة 68%
ضغط 1017 hPa
الرؤية 10 كم أو أكثر
غيوم متفرقة على ارتفاع 2800 قدم
غيوم متفرقة على ارتفاع 8000 قدم

METAR: MHTG 210700Z 00000KT 9999 SCT028 SCT080 19/13 Q1017 A3003 NOSIG

زمن: 01:54 (07:54 UTC)

توقعات

تاريخ ووقت الإصدار 3ساعات و 29 دقيقة قبل الساعة 04:25UTC
التوقعات صالحة من21 الساعة 06 UTC إلى 22 الساعة 06 UTC
ريح 4 عقدة من الشمال/الشمال الشرقي
الرؤية 10 كم أو أكثر
غيوم متفرقة على ارتفاع 2600 قدم
أصبح
من 21 الساعة 15 UTC إلى 21 الساعة 17 UTC
ريح 3 عقدة من الشرق
غيوم قليلة على ارتفاع 3000 قدم

TAF: MHTG 210425Z 2106/2206 03004KT 9999 SCT026 TX30/2121Z TN15/2112Z BECMG 2115/2117 09003KT FEW030

أرصاد الطقس والتوقعات من أكثر من 4000 مطار (تقارير الطقس للمطار METAR والتنبؤ بالطقس بالمطارTAF).

المحطات المتاحة هي النقط الصفراء والحمراء على الخريطة.

حرك المؤشر فوق النقطة لمعرفة اسم المحطة.

ثم انقر لمعرفة أرصاد وتوقعات الطقس.

لتغيير الخارطة: اضغط على الأزرار الخضراء مع رمز الصليب الأسود للتكبير. على الزر الأخضر مع شرطة للتصغير، أو على الأسهم الخضراء للخرائط المجاورة.


METAR-TAF: